sensor_id;sensor_type;location;lat;lon;timestamp;pressure;altitude;pressure_sealevel;temperature;humidity
49030;BME280;43337;52.070;4.508;2023-04-22T00:02:24;100972.75;;;8.16;100.00
49030;BME280;43337;52.070;4.508;2023-04-22T00:04:51;100977.16;;;8.16;100.00
49030;BME280;43337;52.070;4.508;2023-04-22T00:07:16;100973.75;;;8.12;100.00
49030;BME280;43337;52.070;4.508;2023-04-22T00:09:42;100975.59;;;8.08;100.00
49030;BME280;43337;52.070;4.508;2023-04-22T00:12:08;100968.00;;;7.99;100.00
49030;BME280;43337;52.070;4.508;2023-04-22T00:14:35;100967.97;;;8.01;100.00
49030;BME280;43337;52.070;4.508;2023-04-22T00:17:01;100979.41;;;7.98;100.00
49030;BME280;43337;52.070;4.508;2023-04-22T00:19:27;100972.53;;;7.94;100.00
49030;BME280;43337;52.070;4.508;2023-04-22T00:21:52;100974.47;;;7.88;100.00
49030;BME280;43337;52.070;4.508;2023-04-22T00:24:18;100973.72;;;7.84;100.00
49030;BME280;43337;52.070;4.508;2023-04-22T00:26:43;100973.81;;;7.79;100.00
49030;BME280;43337;52.070;4.508;2023-04-22T00:29:08;100964.41;;;7.72;100.00
49030;BME280;43337;52.070;4.508;2023-04-22T00:31:34;100967.09;;;7.71;100.00
49030;BME280;43337;52.070;4.508;2023-04-22T00:33:59;100962.00;;;7.66;100.00
49030;BME280;43337;52.070;4.508;2023-04-22T00:36:25;100961.16;;;7.64;100.00
49030;BME280;43337;52.070;4.508;2023-04-22T00:38:52;100965.53;;;7.65;100.00
49030;BME280;43337;52.070;4.508;2023-04-22T00:41:17;100979.34;;;7.70;100.00
49030;BME280;43337;52.070;4.508;2023-04-22T00:43:43;100957.81;;;7.59;100.00
49030;BME280;43337;52.070;4.508;2023-04-22T00:46:08;100970.00;;;7.60;100.00
49030;BME280;43337;52.070;4.508;2023-04-22T00:48:36;100979.50;;;7.64;100.00
49030;BME280;43337;52.070;4.508;2023-04-22T00:51:01;100984.03;;;7.59;100.00
49030;BME280;43337;52.070;4.508;2023-04-22T00:53:26;100984.88;;;7.59;100.00
49030;BME280;43337;52.070;4.508;2023-04-22T00:55:52;100980.63;;;7.55;100.00
49030;BME280;43337;52.070;4.508;2023-04-22T00:58:20;100976.31;;;7.53;100.00
49030;BME280;43337;52.070;4.508;2023-04-22T01:00:47;100985.06;;;7.53;100.00
49030;BME280;43337;52.070;4.508;2023-04-22T01:03:12;100985.09;;;7.52;100.00
49030;BME280;43337;52.070;4.508;2023-04-22T01:05:39;100975.66;;;7.46;100.00
49030;BME280;43337;52.070;4.508;2023-04-22T01:08:05;100987.84;;;7.47;100.00
49030;BME280;43337;52.070;4.508;2023-04-22T01:10:30;100973.13;;;7.42;100.00
49030;BME280;43337;52.070;4.508;2023-04-22T01:12:56;100961.22;;;7.31;100.00
49030;BME280;43337;52.070;4.508;2023-04-22T01:15:22;100982.88;;;7.37;100.00
49030;BME280;43337;52.070;4.508;2023-04-22T01:17:47;100986.50;;;7.32;100.00
49030;BME280;43337;52.070;4.508;2023-04-22T01:20:13;100975.38;;;7.24;100.00
49030;BME280;43337;52.070;4.508;2023-04-22T01:22:41;100984.00;;;7.28;100.00
49030;BME280;43337;52.070;4.508;2023-04-22T01:25:09;100981.66;;;7.17;100.00
49030;BME280;43337;52.070;4.508;2023-04-22T01:27:35;100983.28;;;7.21;100.00
49030;BME280;43337;52.070;4.508;2023-04-22T01:30:01;100981.66;;;7.17;100.00
49030;BME280;43337;52.070;4.508;2023-04-22T01:32:26;100971.25;;;7.14;100.00
49030;BME280;43337;52.070;4.508;2023-04-22T01:34:54;100970.47;;;7.10;100.00
49030;BME280;43337;52.070;4.508;2023-04-22T01:37:20;100974.84;;;7.12;100.00
49030;BME280;43337;52.070;4.508;2023-04-22T01:39:46;100979.25;;;7.09;100.00
49030;BME280;43337;52.070;4.508;2023-04-22T01:42:12;100968.97;;;7.02;100.00
49030;BME280;43337;52.070;4.508;2023-04-22T01:44:37;100969.88;;;7.01;100.00
49030;BME280;43337;52.070;4.508;2023-04-22T01:47:03;100969.94;;;6.98;100.00
49030;BME280;43337;52.070;4.508;2023-04-22T01:49:29;100969.09;;;6.97;100.00
49030;BME280;43337;52.070;4.508;2023-04-22T01:51:56;100970.00;;;6.95;100.00
49030;BME280;43337;52.070;4.508;2023-04-22T01:54:21;100963.06;;;6.94;100.00
49030;BME280;43337;52.070;4.508;2023-04-22T01:56:53;100968.53;;;6.84;100.00
49030;BME280;43337;52.070;4.508;2023-04-22T01:59:19;100968.53;;;6.84;100.00
49030;BME280;43337;52.070;4.508;2023-04-22T02:01:45;100979.81;;;6.87;100.00
49030;BME280;43337;52.070;4.508;2023-04-22T02:04:11;100972.22;;;6.77;100.00
49030;BME280;43337;52.070;4.508;2023-04-22T02:06:36;100970.50;;;6.75;100.00
49030;BME280;43337;52.070;4.508;2023-04-22T02:09:02;100959.34;;;6.68;100.00
49030;BME280;43337;52.070;4.508;2023-04-22T02:11:28;100947.41;;;6.58;100.00
49030;BME280;43337;52.070;4.508;2023-04-22T02:13:53;100973.25;;;6.70;100.00
49030;BME280;43337;52.070;4.508;2023-04-22T02:16:19;100958.66;;;6.62;100.00
49030;BME280;43337;52.070;4.508;2023-04-22T02:18:44;100969.91;;;6.65;100.00
49030;BME280;43337;52.070;4.508;2023-04-22T02:21:10;100964.69;;;6.64;100.00
49030;BME280;43337;52.070;4.508;2023-04-22T02:23:36;100958.72;;;6.57;100.00
49030;BME280;43337;52.070;4.508;2023-04-22T02:26:02;100967.34;;;6.62;100.00
49030;BME280;43337;52.070;4.508;2023-04-22T02:28:28;100965.72;;;6.58;100.00
49030;BME280;43337;52.070;4.508;2023-04-22T02:30:53;100951.84;;;6.53;100.00
49030;BME280;43337;52.070;4.508;2023-04-22T02:33:18;100958.91;;;6.51;100.00
49030;BME280;43337;52.070;4.508;2023-04-22T02:35:44;100965.03;;;6.50;100.00
49030;BME280;43337;52.070;4.508;2023-04-22T02:38:09;100955.44;;;6.49;100.00
49030;BME280;43337;52.070;4.508;2023-04-22T02:40:35;100957.19;;;6.48;100.00
49030;BME280;43337;52.070;4.508;2023-04-22T02:43:00;100964.97;;;6.51;100.00
49030;BME280;43337;52.070;4.508;2023-04-22T02:45:26;100953.72;;;6.48;100.00
49030;BME280;43337;52.070;4.508;2023-04-22T02:47:51;100957.19;;;6.50;100.00
49030;BME280;43337;52.070;4.508;2023-04-22T02:50:16;100949.34;;;6.50;100.00
49030;BME280;43337;52.070;4.508;2023-04-22T02:52:42;100944.16;;;6.47;100.00
49030;BME280;43337;52.070;4.508;2023-04-22T02:55:07;100938.16;;;6.42;100.00
49030;BME280;43337;52.070;4.508;2023-04-22T02:57:33;100958.09;;;6.47;100.00
49030;BME280;43337;52.070;4.508;2023-04-22T02:59:58;100942.53;;;6.43;100.00
49030;BME280;43337;52.070;4.508;2023-04-22T03:02:24;100947.72;;;6.44;100.00
49030;BME280;43337;52.070;4.508;2023-04-22T03:04:49;100927.91;;;6.34;100.00
49030;BME280;43337;52.070;4.508;2023-04-22T03:07:16;100932.13;;;6.40;100.00
49030;BME280;43337;52.070;4.508;2023-04-22T03:09:41;100926.91;;;6.40;100.00
49030;BME280;43337;52.070;4.508;2023-04-22T03:12:08;100923.44;;;6.38;100.00
49030;BME280;43337;52.070;4.508;2023-04-22T03:14:33;100890.78;;;6.18;100.00
49030;BME280;43337;52.070;4.508;2023-04-22T03:16:58;100915.72;;;6.34;100.00
49030;BME280;43337;52.070;4.508;2023-04-22T03:19:24;100917.41;;;6.35;100.00
49030;BME280;43337;52.070;4.508;2023-04-22T03:21:49;100928.66;;;6.39;100.00
49030;BME280;43337;52.070;4.508;2023-04-22T03:24:14;100926.91;;;6.40;100.00
49030;BME280;43337;52.070;4.508;2023-04-22T03:26:40;100919.09;;;6.38;100.00
49030;BME280;43337;52.070;4.508;2023-04-22T03:29:06;100906.91;;;6.37;100.00
49030;BME280;43337;52.070;4.508;2023-04-22T03:31:31;100916.44;;;6.40;100.00
49030;BME280;43337;52.070;4.508;2023-04-22T03:33:56;100925.03;;;6.45;100.00
49030;BME280;43337;52.070;4.508;2023-04-22T03:36:22;100899.91;;;6.38;100.00
49030;BME280;43337;52.070;4.508;2023-04-22T03:38:47;100910.13;;;6.48;100.00
49030;BME280;43337;52.070;4.508;2023-04-22T03:41:12;100906.66;;;6.48;100.00
49030;BME280;43337;52.070;4.508;2023-04-22T03:43:38;100883.38;;;6.37;100.00
49030;BME280;43337;52.070;4.508;2023-04-22T03:46:03;100894.47;;;6.47;100.00
49030;BME280;43337;52.070;4.508;2023-04-22T03:48:29;100884.94;;;6.46;100.00
49030;BME280;43337;52.070;4.508;2023-04-22T03:50:59;100884.75;;;6.52;100.00
49030;BME280;43337;52.070;4.508;2023-04-22T03:53:24;100866.72;;;6.41;100.00
49030;BME280;43337;52.070;4.508;2023-04-22T03:55:49;100901.28;;;6.54;100.00
49030;BME280;43337;52.070;4.508;2023-04-22T03:58:15;100880.50;;;6.48;100.00
49030;BME280;43337;52.070;4.508;2023-04-22T04:00:40;100891.69;;;6.53;100.00
49030;BME280;43337;52.070;4.508;2023-04-22T04:03:05;100885.53;;;6.55;100.00
49030;BME280;43337;52.070;4.508;2023-04-22T04:05:31;100889.06;;;6.54;100.00
49030;BME280;43337;52.070;4.508;2023-04-22T04:07:56;100876.00;;;6.53;100.00
49030;BME280;43337;52.070;4.508;2023-04-22T04:10:21;100853.63;;;6.41;100.00
49030;BME280;43337;52.070;4.508;2023-04-22T04:12:47;100871.69;;;6.52;100.00
49030;BME280;43337;52.070;4.508;2023-04-22T04:15:12;100875.97;;;6.54;100.00
49030;BME280;43337;52.070;4.508;2023-04-22T04:17:37;100878.47;;;6.59;100.00
49030;BME280;43337;52.070;4.508;2023-04-22T04:20:03;100872.50;;;6.54;100.00
49030;BME280;43337;52.070;4.508;2023-04-22T04:22:28;100873.25;;;6.59;100.00
49030;BME280;43337;52.070;4.508;2023-04-22T04:24:54;100863.75;;;6.55;100.00
49030;BME280;43337;52.070;4.508;2023-04-22T04:27:21;100855.06;;;6.54;100.00
49030;BME280;43337;52.070;4.508;2023-04-22T04:29:48;100862.78;;;6.59;100.00
49030;BME280;43337;52.070;4.508;2023-04-22T04:32:13;100868.00;;;6.59;100.00
49030;BME280;43337;52.070;4.508;2023-04-22T04:34:39;100866.31;;;6.58;100.00
49030;BME280;43337;52.070;4.508;2023-04-22T04:37:04;100868.94;;;6.56;100.00
49030;BME280;43337;52.070;4.508;2023-04-22T04:39:30;100876.72;;;6.59;100.00
49030;BME280;43337;52.070;4.508;2023-04-22T04:41:55;100858.66;;;6.50;100.00
49030;BME280;43337;52.070;4.508;2023-04-22T04:44:22;100855.06;;;6.54;100.00
49030;BME280;43337;52.070;4.508;2023-04-22T04:46:48;100866.25;;;6.59;100.00
49030;BME280;43337;52.070;4.508;2023-04-22T04:49:14;100865.47;;;6.56;100.00
49030;BME280;43337;52.070;4.508;2023-04-22T04:51:41;100856.69;;;6.58;100.00
49030;BME280;43337;52.070;4.508;2023-04-22T04:54:06;100853.34;;;6.53;100.00
49030;BME280;43337;52.070;4.508;2023-04-22T04:56:31;100847.22;;;6.53;100.00
49030;BME280;43337;52.070;4.508;2023-04-22T04:58:57;100846.44;;;6.51;100.00
49030;BME280;43337;52.070;4.508;2023-04-22T05:01:22;100860.09;;;6.62;100.00
49030;BME280;43337;52.070;4.508;2023-04-22T05:03:47;100859.13;;;6.65;100.00
49030;BME280;43337;52.070;4.508;2023-04-22T05:06:13;100844.28;;;6.67;100.00
49030;BME280;43337;52.070;4.508;2023-04-22T05:08:38;100843.50;;;6.63;100.00
49030;BME280;43337;52.070;4.508;2023-04-22T05:11:04;100845.19;;;6.64;100.00
49030;BME280;43337;52.070;4.508;2023-04-22T05:13:29;100846.88;;;6.67;100.00
49030;BME280;43337;52.070;4.508;2023-04-22T05:15:55;100837.34;;;6.66;100.00
49030;BME280;43337;52.070;4.508;2023-04-22T05:18:20;100839.03;;;6.67;100.00
49030;BME280;43337;52.070;4.508;2023-04-22T05:20:46;100845.84;;;6.72;100.00
49030;BME280;43337;52.070;4.508;2023-04-22T05:23:11;100856.22;;;6.77;100.00
49030;BME280;43337;52.070;4.508;2023-04-22T05:25:37;100857.94;;;6.76;100.00
49030;BME280;43337;52.070;4.508;2023-04-22T05:28:02;100873.44;;;6.85;100.00
49030;BME280;43337;52.070;4.508;2023-04-22T05:30:28;100869.97;;;6.85;100.00
49030;BME280;43337;52.070;4.508;2023-04-22T05:32:53;100865.72;;;6.81;100.00
49030;BME280;43337;52.070;4.508;2023-04-22T05:35:18;100871.59;;;6.89;100.00
49030;BME280;43337;52.070;4.508;2023-04-22T05:37:44;100887.13;;;6.95;100.00
49030;BME280;43337;52.070;4.508;2023-04-22T05:40:09;100890.50;;;6.99;100.00
49030;BME280;43337;52.070;4.508;2023-04-22T05:42:34;100875.78;;;6.95;100.00
49030;BME280;43337;52.070;4.508;2023-04-22T05:45:00;100880.03;;;6.99;100.00
49030;BME280;43337;52.070;4.508;2023-04-22T05:47:26;100876.56;;;6.98;100.00
49030;BME280;43337;52.070;4.508;2023-04-22T05:49:51;100882.50;;;7.05;100.00
49030;BME280;43337;52.070;4.508;2023-04-22T05:52:16;100877.22;;;7.06;100.00
49030;BME280;43337;52.070;4.508;2023-04-22T05:54:42;100871.03;;;7.09;100.00
49030;BME280;43337;52.070;4.508;2023-04-22T05:57:08;100877.84;;;7.15;100.00
49030;BME280;43337;52.070;4.508;2023-04-22T05:59:34;100878.69;;;7.17;100.00
49030;BME280;43337;52.070;4.508;2023-04-22T06:01:59;100856.19;;;7.09;100.00
49030;BME280;43337;52.070;4.508;2023-04-22T06:04:25;100877.63;;;7.24;100.00
49030;BME280;43337;52.070;4.508;2023-04-22T06:06:51;100832.59;;;7.11;100.00
49030;BME280;43337;52.070;4.508;2023-04-22T06:09:20;100845.22;;;7.28;100.00
49030;BME280;43337;52.070;4.508;2023-04-22T06:11:45;100838.34;;;7.24;100.00
49030;BME280;43337;52.070;4.508;2023-04-22T06:14:12;100856.09;;;7.44;100.00
49030;BME280;43337;52.070;4.508;2023-04-22T06:16:38;100849.09;;;7.44;100.00
49030;BME280;43337;52.070;4.508;2023-04-22T06:19:04;100850.56;;;7.53;100.00
49030;BME280;43337;52.070;4.508;2023-04-22T06:21:29;100839.25;;;7.52;100.00
49030;BME280;43337;52.070;4.508;2023-04-22T06:23:56;100848.69;;;7.58;100.00
49030;BME280;43337;52.070;4.508;2023-04-22T06:26:22;100845.03;;;7.64;100.00
49030;BME280;43337;52.070;4.508;2023-04-22T06:28:47;100839.78;;;7.64;100.00
49030;BME280;43337;52.070;4.508;2023-04-22T06:31:12;100850.78;;;7.75;100.00
49030;BME280;43337;52.070;4.508;2023-04-22T06:33:38;100833.38;;;7.74;100.00
49030;BME280;43337;52.070;4.508;2023-04-22T06:36:04;100847.91;;;7.84;100.00
49030;BME280;43337;52.070;4.508;2023-04-22T06:38:30;100833.03;;;7.85;100.00
49030;BME280;43337;52.070;4.508;2023-04-22T06:40:55;100837.16;;;7.92;100.00
49030;BME280;43337;52.070;4.508;2023-04-22T06:43:20;100837.81;;;7.98;100.00
49030;BME280;43337;52.070;4.508;2023-04-22T06:45:46;100827.34;;;7.98;100.00
49030;BME280;43337;52.070;4.508;2023-04-22T06:48:11;100833.31;;;8.03;100.00
49030;BME280;43337;52.070;4.508;2023-04-22T06:50:36;100842.72;;;8.09;100.00
49030;BME280;43337;52.070;4.508;2023-04-22T06:53:02;100838.91;;;8.19;100.00
49030;BME280;43337;52.070;4.508;2023-04-22T06:55:27;100838.69;;;8.25;100.00
49030;BME280;43337;52.070;4.508;2023-04-22T06:57:52;100836.84;;;8.29;100.00
49030;BME280;43337;52.070;4.508;2023-04-22T07:00:18;100807.38;;;8.21;100.00
49030;BME280;43337;52.070;4.508;2023-04-22T07:02:44;100814.84;;;8.33;100.00
49030;BME280;43337;52.070;4.508;2023-04-22T07:05:11;100830.91;;;8.50;100.00
49030;BME280;43337;52.070;4.508;2023-04-22T07:07:36;100818.47;;;8.55;100.00
49030;BME280;43337;52.070;4.508;2023-04-22T07:10:02;100815.66;;;8.62;100.00
49030;BME280;43337;52.070;4.508;2023-04-22T07:12:28;100819.63;;;8.73;100.00
49030;BME280;43337;52.070;4.508;2023-04-22T07:14:53;100808.94;;;8.78;100.00
49030;BME280;43337;52.070;4.508;2023-04-22T07:17:19;100797.81;;;8.71;100.00
49030;BME280;43337;52.070;4.508;2023-04-22T07:19:47;100833.63;;;8.97;100.00
49030;BME280;43337;52.070;4.508;2023-04-22T07:22:12;100830.63;;;9.08;100.00
49030;BME280;43337;52.070;4.508;2023-04-22T07:24:37;100819.88;;;9.14;100.00
49030;BME280;43337;52.070;4.508;2023-04-22T07:27:04;100829.81;;;9.29;100.00
49030;BME280;43337;52.070;4.508;2023-04-22T07:29:29;100819.88;;;9.38;100.00
49030;BME280;43337;52.070;4.508;2023-04-22T07:31:54;100819.53;;;9.47;100.00
49030;BME280;43337;52.070;4.508;2023-04-22T07:34:26;100820.03;;;9.57;100.00
49030;BME280;43337;52.070;4.508;2023-04-22T07:36:51;100827.88;;;9.58;100.00
49030;BME280;43337;52.070;4.508;2023-04-22T07:39:17;100840.44;;;9.73;100.00
49030;BME280;43337;52.070;4.508;2023-04-22T07:41:43;100843.72;;;9.78;100.00
49030;BME280;43337;52.070;4.508;2023-04-22T07:44:08;100846.97;;;9.85;100.00
49030;BME280;43337;52.070;4.508;2023-04-22T07:46:34;100850.28;;;9.90;100.00
49030;BME280;43337;52.070;4.508;2023-04-22T07:49:00;100844.78;;;9.96;100.00
49030;BME280;43337;52.070;4.508;2023-04-22T07:51:25;100836.63;;;10.02;100.00
49030;BME280;43337;52.070;4.508;2023-04-22T07:53:50;100847.38;;;10.18;100.00
49030;BME280;43337;52.070;4.508;2023-04-22T07:56:17;100833.63;;;10.34;100.00
49030;BME280;43337;52.070;4.508;2023-04-22T07:58:42;100834.94;;;10.45;100.00
49030;BME280;43337;52.070;4.508;2023-04-22T08:01:07;100819.47;;;10.58;100.00
49030;BME280;43337;52.070;4.508;2023-04-22T08:03:33;100812.72;;;10.71;100.00
49030;BME280;43337;52.070;4.508;2023-04-22T08:05:58;100804.16;;;10.87;100.00
49030;BME280;43337;52.070;4.508;2023-04-22T08:08:24;100793.94;;;10.99;100.00
49030;BME280;43337;52.070;4.508;2023-04-22T08:10:49;100789.06;;;11.11;100.00
49030;BME280;43337;52.070;4.508;2023-04-22T08:13:15;100788.63;;;11.20;100.00
49030;BME280;43337;52.070;4.508;2023-04-22T08:15:40;100784.66;;;11.30;100.00
49030;BME280;43337;52.070;4.508;2023-04-22T08:18:06;100787.97;;;11.34;100.00
49030;BME280;43337;52.070;4.508;2023-04-22T08:20:31;100784.34;;;11.36;100.00
49030;BME280;43337;52.070;4.508;2023-04-22T08:22:56;100793.59;;;11.45;100.00
49030;BME280;43337;52.070;4.508;2023-04-22T08:25:25;100788.75;;;11.55;100.00
49030;BME280;43337;52.070;4.508;2023-04-22T08:27:50;100789.75;;;11.52;100.00
49030;BME280;43337;52.070;4.508;2023-04-22T08:30:16;100777.28;;;11.56;100.00
49030;BME280;43337;52.070;4.508;2023-04-22T08:32:43;100791.75;;;11.66;100.00
49030;BME280;43337;52.070;4.508;2023-04-22T08:35:08;100798.31;;;11.76;100.00
49030;BME280;43337;52.070;4.508;2023-04-22T08:37:34;100807.50;;;11.86;100.00
49030;BME280;43337;52.070;4.508;2023-04-22T08:40:00;100798.28;;;11.95;100.00
49030;BME280;43337;52.070;4.508;2023-04-22T08:42:26;100792.84;;;11.98;100.00
49030;BME280;43337;52.070;4.508;2023-04-22T08:44:52;100789.53;;;12.12;100.00
49030;BME280;43337;52.070;4.508;2023-04-22T08:47:19;100786.66;;;12.16;100.00
49030;BME280;43337;52.070;4.508;2023-04-22T08:49:45;100788.78;;;12.27;100.00
49030;BME280;43337;52.070;4.508;2023-04-22T08:52:11;100779.69;;;12.33;100.00
49030;BME280;43337;52.070;4.508;2023-04-22T08:54:42;100781.16;;;12.38;100.00
49030;BME280;43337;52.070;4.508;2023-04-22T08:57:09;100775.66;;;12.43;100.00
49030;BME280;43337;52.070;4.508;2023-04-22T08:59:36;100757.94;;;12.45;100.00
49030;BME280;43337;52.070;4.508;2023-04-22T09:02:01;100763.34;;;12.59;100.00
49030;BME280;43337;52.070;4.508;2023-04-22T09:04:28;100740.28;;;12.63;100.00
49030;BME280;43337;52.070;4.508;2023-04-22T09:06:55;100721.47;;;12.69;100.00
49030;BME280;43337;52.070;4.508;2023-04-22T09:09:20;100740.28;;;12.96;100.00
49030;BME280;43337;52.070;4.508;2023-04-22T09:11:46;100726.56;;;13.05;100.00
49030;BME280;43337;52.070;4.508;2023-04-22T09:14:11;100728.47;;;13.19;100.00
49030;BME280;43337;52.070;4.508;2023-04-22T09:16:41;100736.44;;;13.35;100.00
49030;BME280;43337;52.070;4.508;2023-04-22T09:19:11;100724.47;;;13.43;100.00
49030;BME280;43337;52.070;4.508;2023-04-22T09:21:39;100710.97;;;13.48;100.00
49030;BME280;43337;52.070;4.508;2023-04-22T09:24:10;100712.72;;;13.49;100.00
49030;BME280;43337;52.070;4.508;2023-04-22T09:26:38;100716.19;;;13.50;100.00
49030;BME280;43337;52.070;4.508;2023-04-22T09:29:05;100710.56;;;13.40;100.00
49030;BME280;43337;52.070;4.508;2023-04-22T09:31:35;100697.72;;;13.34;100.00
49030;BME280;43337;52.070;4.508;2023-04-22T09:34:02;100709.63;;;13.41;100.00
49030;BME280;43337;52.070;4.508;2023-04-22T09:36:29;100708.94;;;13.37;100.00
49030;BME280;43337;52.070;4.508;2023-04-22T09:38:57;100730.59;;;13.44;100.00
49030;BME280;43337;52.070;4.508;2023-04-22T09:41:31;100731.88;;;13.37;100.00
49030;BME280;43337;52.070;4.508;2023-04-22T09:43:58;100727.88;;;13.30;100.00
49030;BME280;43337;52.070;4.508;2023-04-22T09:46:24;100739.22;;;13.32;100.00
49030;BME280;43337;52.070;4.508;2023-04-22T09:48:51;100737.59;;;13.29;100.00
49030;BME280;43337;52.070;4.508;2023-04-22T09:51:19;100735.81;;;13.30;100.00
49030;BME280;43337;52.070;4.508;2023-04-22T09:54:02;100772.75;;;13.31;100.00
49030;BME280;43337;52.070;4.508;2023-04-22T09:56:46;100766.63;;;13.31;100.00
49030;BME280;43337;52.070;4.508;2023-04-22T09:59:14;100777.63;;;13.39;100.00
49030;BME280;43337;52.070;4.508;2023-04-22T10:01:41;100772.59;;;13.50;100.00
49030;BME280;43337;52.070;4.508;2023-04-22T10:04:07;100769.34;;;13.61;100.00
49030;BME280;43337;52.070;4.508;2023-04-22T10:06:39;100765.84;;;13.76;100.00
49030;BME280;43337;52.070;4.508;2023-04-22T10:09:04;100774.59;;;13.92;100.00
49030;BME280;43337;52.070;4.508;2023-04-22T10:11:31;100771.94;;;14.08;100.00
49030;BME280;43337;52.070;4.508;2023-04-22T10:13:57;100773.69;;;14.24;100.00
49030;BME280;43337;52.070;4.508;2023-04-22T10:16:26;100770.41;;;14.34;100.00
49030;BME280;43337;52.070;4.508;2023-04-22T10:18:54;100766.44;;;14.41;100.00
49030;BME280;43337;52.070;4.508;2023-04-22T10:21:22;100753.84;;;14.45;100.00
49030;BME280;43337;52.070;4.508;2023-04-22T10:23:48;100763.94;;;14.54;100.00
49030;BME280;43337;52.070;4.508;2023-04-22T10:29:12;100760.94;;;14.45;100.00
49030;BME280;43337;52.070;4.508;2023-04-22T10:31:42;100766.53;;;14.40;100.00
49030;BME280;43337;52.070;4.508;2023-04-22T10:34:10;100760.09;;;14.30;100.00
49030;BME280;43337;52.070;4.508;2023-04-22T10:36:54;100764.47;;;14.15;100.00
49030;BME280;43337;52.070;4.508;2023-04-22T10:39:20;100767.25;;;13.98;100.00
49030;BME280;43337;52.070;4.508;2023-04-22T10:42:08;100781.03;;;13.88;100.00
49030;BME280;43337;52.070;4.508;2023-04-22T10:44:53;100777.44;;;13.74;100.00
49030;BME280;43337;52.070;4.508;2023-04-22T10:50:24;100783.50;;;13.60;100.00
49030;BME280;43337;52.070;4.508;2023-04-22T10:52:57;100763.13;;;13.46;100.00
49030;BME280;43337;52.070;4.508;2023-04-22T10:55:24;100765.84;;;13.44;100.00
49030;BME280;43337;52.070;4.508;2023-04-22T10:57:51;100770.44;;;13.41;100.00
49030;BME280;43337;52.070;4.508;2023-04-22T11:00:28;100772.25;;;13.40;100.00
49030;BME280;43337;52.070;4.508;2023-04-22T11:03:11;100761.91;;;13.36;100.00
49030;BME280;43337;52.070;4.508;2023-04-22T11:05:37;100760.47;;;13.30;100.00
49030;BME280;43337;52.070;4.508;2023-04-22T11:08:11;100767.88;;;13.24;100.00
49030;BME280;43337;52.070;4.508;2023-04-22T11:10:38;100772.78;;;13.14;100.00
49030;BME280;43337;52.070;4.508;2023-04-22T11:13:27;100770.25;;;12.95;100.00
49030;BME280;43337;52.070;4.508;2023-04-22T11:15:54;100756.09;;;12.80;100.00
49030;BME280;43337;52.070;4.508;2023-04-22T11:18:24;100778.19;;;12.62;100.00
49030;BME280;43337;52.070;4.508;2023-04-22T11:20:50;100784.34;;;12.45;100.00
49030;BME280;43337;52.070;4.508;2023-04-22T11:23:27;100776.28;;;12.31;100.00
49030;BME280;43337;52.070;4.508;2023-04-22T11:25:54;100782.94;;;12.20;100.00
49030;BME280;43337;52.070;4.508;2023-04-22T11:28:20;100816.78;;;12.12;100.00
49030;BME280;43337;52.070;4.508;2023-04-22T11:30:47;100818.47;;;11.96;100.00
49030;BME280;43337;52.070;4.508;2023-04-22T11:33:14;100810.56;;;11.77;100.00
49030;BME280;43337;52.070;4.508;2023-04-22T11:35:40;100838.50;;;11.62;100.00
49030;BME280;43337;52.070;4.508;2023-04-22T11:38:07;100840.19;;;11.44;100.00
49030;BME280;43337;52.070;4.508;2023-04-22T11:40:34;100820.84;;;11.27;100.00
49030;BME280;43337;52.070;4.508;2023-04-22T11:43:02;100811.03;;;11.10;100.00
49030;BME280;43337;52.070;4.508;2023-04-22T11:45:35;100805.84;;;11.08;100.00
49030;BME280;43337;52.070;4.508;2023-04-22T11:48:02;100801.50;;;11.07;100.00
49030;BME280;43337;52.070;4.508;2023-04-22T11:50:31;100789.41;;;11.03;100.00
49030;BME280;43337;52.070;4.508;2023-04-22T11:52:59;100782.69;;;10.96;100.00
49030;BME280;43337;52.070;4.508;2023-04-22T11:55:26;100787.25;;;10.92;100.00
49030;BME280;43337;52.070;4.508;2023-04-22T11:58:08;100821.03;;;10.83;100.00
49030;BME280;43337;52.070;4.508;2023-04-22T12:00:45;100826.25;;;10.84;100.00
49030;BME280;43337;52.070;4.508;2023-04-22T12:03:21;100780.78;;;10.79;100.00
49030;BME280;43337;52.070;4.508;2023-04-22T12:10:55;100810.16;;;10.70;100.00
49030;BME280;43337;52.070;4.508;2023-04-22T12:13:25;100778.69;;;10.67;100.00
49030;BME280;43337;52.070;4.508;2023-04-22T12:16:17;100764.91;;;10.62;100.00
49030;BME280;43337;52.070;4.508;2023-04-22T12:18:50;100761.59;;;10.57;100.00
49030;BME280;43337;52.070;4.508;2023-04-22T12:21:22;100772.91;;;10.59;100.00
49030;BME280;43337;52.070;4.508;2023-04-22T12:23:56;100776.31;;;10.61;100.00
49030;BME280;43337;52.070;4.508;2023-04-22T12:26:22;100754.81;;;10.51;100.00
49030;BME280;43337;52.070;4.508;2023-04-22T12:28:49;100777.34;;;10.58;100.00
49030;BME280;43337;52.070;4.508;2023-04-22T12:31:20;100767.06;;;10.52;100.00
49030;BME280;43337;52.070;4.508;2023-04-22T12:33:46;100760.19;;;10.49;100.00
49030;BME280;43337;52.070;4.508;2023-04-22T12:36:12;100775.03;;;10.50;100.00
49030;BME280;43337;52.070;4.508;2023-04-22T12:38:39;100779.66;;;10.45;100.00
49030;BME280;43337;52.070;4.508;2023-04-22T12:41:06;100778.00;;;10.43;100.00
49030;BME280;43337;52.070;4.508;2023-04-22T12:43:33;100775.63;;;10.37;100.00
49030;BME280;43337;52.070;4.508;2023-04-22T12:46:04;100779.91;;;10.39;100.00
49030;BME280;43337;52.070;4.508;2023-04-22T12:48:31;100755.00;;;10.26;100.00
49030;BME280;43337;52.070;4.508;2023-04-22T12:50:56;100756.28;;;10.38;100.00
49030;BME280;43337;52.070;4.508;2023-04-22T12:53:23;100755.16;;;10.43;100.00
49030;BME280;43337;52.070;4.508;2023-04-22T12:55:48;100769.03;;;10.47;100.00